Terminal Aerodrome Forecast
Issued by NWS

Home | Current Version | Previous Version | Text Only | Print | Product List | Glossary On
Versions: 1 2 3 4 5 6 7 8 9 10 11 12 13 14 15 16
000
FTUS41 KPBZ 250918 AAA
TAFLBE
TAF AMD
KLBE 250918Z 2509/2606 07005KT 5SM BR OVC015
      TEMPO 2509/2512 SCT015 OVC060
     FM251600 26005KT P6SM VCSH OVC020
     FM252000 31009KT P6SM VCSH OVC010
     FM260400 30006KT P6SM BKN020=

USA.gov is the U.S. government's official web portal to all federal, state and local government web resources and services.